Time;durP1;ratioP1;P1;durP2;ratioP2;P2;SDS_P1;SDS_P2;PMS_P1;PMS_P2;Temp;Humidity;BMP_temperature;BMP_pressure;BME280_temperature;BME280_humidity;BME280_pressure;Samples;Min_cycle;Max_cycle;Signal;HPM_P1;HPM_P2
2021/05/22 00:02:12;;;;;;;0.87;0.80;;;11.90;97.20;;;;;;5035937;28;20348;-51
2021/05/22 00:04:37;;;;;;;1.53;0.90;;;11.90;97.20;;;;;;5045599;28;20220;-49
2021/05/22 00:07:04;;;;;;;1.73;0.80;;;11.90;97.60;;;;;;5042470;28;20193;-50
2021/05/22 00:09:33;;;;;;;2.00;1.00;;;11.70;97.40;;;;;;5045452;28;20240;-50
2021/05/22 00:11:58;;;;;;;1.50;1.00;;;11.80;97.30;;;;;;5041438;28;20184;-50
2021/05/22 00:14:24;;;;;;;1.20;0.90;;;12.00;97.50;;;;;;5037576;28;20706;-50
2021/05/22 00:16:50;;;;;;;0.87;0.70;;;11.80;97.40;;;;;;5043678;28;20221;-49
2021/05/22 00:19:17;;;;;;;0.80;0.80;;;11.80;97.10;;;;;;5049518;28;20192;-50
2021/05/22 00:21:43;;;;;;;1.27;0.80;;;11.80;96.90;;;;;;5037828;28;20185;-50
2021/05/22 00:24:09;;;;;;;1.55;0.80;;;11.70;96.70;;;;;;5034159;28;20202;-50
2021/05/22 00:26:35;;;;;;;1.10;0.90;;;11.80;97.00;;;;;;5038085;28;20552;-50
2021/05/22 00:29:01;;;;;;;1.70;0.60;;;11.80;96.90;;;;;;5036264;28;20170;-51
2021/05/22 00:31:26;;;;;;;0.87;0.80;;;11.80;96.70;;;;;;5035154;28;20199;-51
2021/05/22 00:33:52;;;;;;;2.60;0.87;;;11.90;96.60;;;;;;5049265;28;20299;-50
2021/05/22 00:36:17;;;;;;;1.70;0.90;;;11.80;96.50;;;;;;5040569;28;20186;-49
2021/05/22 00:38:43;;;;;;;0.70;0.60;;;11.70;96.30;;;;;;5041074;28;20225;-50
2021/05/22 00:41:09;;;;;;;1.10;0.80;;;11.80;96.10;;;;;;5036904;28;20166;-50
2021/05/22 00:43:34;;;;;;;0.70;0.60;;;11.70;95.90;;;;;;5040664;28;20611;-50
2021/05/22 00:46:00;;;;;;;1.33;0.70;;;11.60;95.80;;;;;;5045428;28;20235;-50
2021/05/22 00:48:26;;;;;;;1.80;0.97;;;11.50;96.00;;;;;;5039396;28;20175;-50
2021/05/22 00:50:52;;;;;;;0.70;0.70;;;11.70;96.20;;;;;;5041502;28;20201;-51
2021/05/22 00:53:18;;;;;;;0.70;0.70;;;11.40;96.30;;;;;;5042336;28;20231;-50
2021/05/22 00:55:44;;;;;;;0.90;0.77;;;11.40;96.30;;;;;;5042132;28;20795;-50
2021/05/22 00:58:09;;;;;;;1.27;0.70;;;11.60;96.40;;;;;;5039346;28;20178;-50
2021/05/22 01:00:49;;;;;;;6.20;1.10;;;11.70;96.60;;;;;;5030770;28;20411;-51
2021/05/22 01:03:42;;;;;;;1.40;0.85;;;11.50;96.40;;;;;;5036652;28;20228;-51
2021/05/22 01:06:10;;;;;;;0.60;0.60;;;11.50;96.50;;;;;;5039439;28;20195;-50
2021/05/22 01:08:37;;;;;;;1.05;0.70;;;11.30;96.50;;;;;;5038843;28;20184;-50
2021/05/22 01:11:12;;;;;;;2.05;0.80;;;11.50;96.80;;;;;;5040735;28;20265;-50
2021/05/22 01:13:38;;;;;;;1.20;1.10;;;11.50;97.10;;;;;;5040325;28;20177;-50
2021/05/22 01:16:05;;;;;;;1.33;0.70;;;11.30;97.00;;;;;;5038524;28;20175;-50
2021/05/22 01:18:31;;;;;;;1.13;0.80;;;11.50;97.30;;;;;;5034705;28;20230;-51
2021/05/22 01:20:59;;;;;;;0.90;0.75;;;11.10;97.30;;;;;;5035291;28;20236;-51
2021/05/22 01:23:35;;;;;;;1.40;0.70;;;11.30;97.50;;;;;;5047654;28;20540;-50
2021/05/22 01:26:02;;;;;;;0.80;0.80;;;11.40;97.70;;;;;;5048301;28;20272;-50
2021/05/22 01:28:28;;;;;;;1.48;0.80;;;11.20;97.70;;;;;;5048254;28;20650;-50
2021/05/22 01:30:54;;;;;;;1.70;1.00;;;11.50;97.90;;;;;;5038272;28;20207;-50
2021/05/22 01:33:21;;;;;;;0.98;0.88;;;11.50;97.90;;;;;;5035671;28;20178;-50
2021/05/22 01:35:48;;;;;;;3.20;0.82;;;11.10;97.70;;;;;;5043972;28;20284;-50
2021/05/22 01:38:17;;;;;;;0.90;0.80;;;11.30;98.00;;;;;;5037751;28;20270;-50
2021/05/22 01:40:44;;;;;;;0.75;0.68;;;11.10;98.00;;;;;;5034724;28;20197;-50
2021/05/22 01:43:10;;;;;;;1.73;0.90;;;11.20;98.00;;;;;;5044114;28;20229;-50
2021/05/22 01:45:40;;;;;;;1.23;0.65;;;11.60;98.10;;;;;;5035307;28;20832;-50
2021/05/22 01:48:08;;;;;;;2.55;1.00;;;11.40;98.20;;;;;;5043434;28;20177;-50
2021/05/22 01:50:37;;;;;;;2.80;0.98;;;11.50;98.30;;;;;;5039102;28;20181;-50
2021/05/22 01:53:08;;;;;;;0.80;0.80;;;11.40;98.10;;;;;;5039001;28;20198;-50
2021/05/22 01:55:36;;;;;;;0.90;0.90;;;11.80;98.10;;;;;;5034002;28;20574;-50
2021/05/22 01:58:01;;;;;;;2.13;1.10;;;11.70;97.90;;;;;;5042447;28;20674;-50
2021/05/22 02:00:27;;;;;;;0.80;0.77;;;11.60;97.90;;;;;;5035598;28;20330;-51
2021/05/22 02:03:10;;;;;;;1.40;0.80;;;11.90;97.80;;;;;;5034155;28;20186;-51
2021/05/22 02:05:37;;;;;;;1.17;0.85;;;11.80;97.50;;;;;;5037428;28;20248;-51
2021/05/22 02:08:07;;;;;;;1.90;1.30;;;12.00;97.60;;;;;;5044216;28;20186;-50
2021/05/22 02:10:34;;;;;;;2.80;1.13;;;11.90;97.40;;;;;;5037941;28;20805;-50
2021/05/22 02:13:00;;;;;;;1.45;1.17;;;11.80;97.00;;;;;;5029988;28;20183;-49
2021/05/22 02:15:27;;;;;;;1.73;1.20;;;11.90;96.70;;;;;;5040161;28;20211;-50
2021/05/22 02:17:55;;;;;;;1.65;1.10;;;12.00;96.90;;;;;;5054877;28;20273;-51
2021/05/22 02:20:23;;;;;;;1.92;1.45;;;11.90;96.80;;;;;;5037815;28;20283;-51
2021/05/22 02:22:50;;;;;;;1.83;1.10;;;12.30;97.00;;;;;;5035002;28;20672;-51
2021/05/22 02:25:16;;;;;;;1.80;1.30;;;12.30;97.00;;;;;;5036586;28;20211;-51
2021/05/22 02:27:43;;;;;;;1.85;0.90;;;12.00;97.10;;;;;;5032544;28;20212;-50
2021/05/22 02:30:12;;;;;;;1.10;1.00;;;12.30;98.30;;;;;;5047812;28;20191;-50
2021/05/22 02:32:41;;;;;;;3.42;1.02;;;12.10;98.40;;;;;;5039407;28;20190;-50
2021/05/22 02:35:09;;;;;;;1.10;1.00;;;12.10;99.00;;;;;;5037052;28;20213;-50
2021/05/22 02:37:35;;;;;;;1.45;0.80;;;12.10;99.90;;;;;;5033479;28;20242;-50
2021/05/22 02:40:23;;;;;;;1.85;0.90;;;11.90;99.90;;;;;;5037326;28;20652;-51
2021/05/22 02:43:03;;;;;;;0.85;0.85;;;11.50;99.90;;;;;;5044899;28;20186;-50
2021/05/22 02:45:31;;;;;;;2.90;0.95;;;11.20;99.90;;;;;;5040149;28;20740;-51
2021/05/22 02:47:59;;;;;;;0.93;0.90;;;11.10;99.90;;;;;;5030618;28;20569;-50
2021/05/22 02:50:26;;;;;;;1.20;0.98;;;11.10;99.90;;;;;;5042819;28;20192;-51
2021/05/22 02:52:54;;;;;;;0.80;0.70;;;10.90;99.90;;;;;;5035405;28;20170;-50
2021/05/22 02:55:19;;;;;;;1.17;0.75;;;11.10;99.90;;;;;;5036023;28;20210;-50
2021/05/22 02:57:46;;;;;;;1.97;0.90;;;11.00;99.90;;;;;;5042503;28;20201;-50
2021/05/22 03:00:13;;;;;;;1.20;0.70;;;10.90;99.90;;;;;;5040212;28;20189;-51
2021/05/22 03:02:39;;;;;;;2.78;1.05;;;10.90;99.90;;;;;;5048089;28;20190;-51
2021/05/22 03:05:06;;;;;;;1.67;0.85;;;10.80;99.90;;;;;;5045619;28;20205;-50
2021/05/22 03:07:33;;;;;;;1.77;1.00;;;11.00;99.90;;;;;;5045145;28;20297;-50
2021/05/22 03:09:59;;;;;;;1.08;0.82;;;10.90;99.90;;;;;;5037861;28;20185;-51
2021/05/22 03:12:30;;;;;;;1.37;0.90;;;10.80;99.90;;;;;;5042253;28;20183;-50
2021/05/22 03:14:55;;;;;;;1.38;0.90;;;10.80;99.90;;;;;;5037696;28;20202;-51
2021/05/22 03:17:21;;;;;;;1.23;1.00;;;10.70;99.90;;;;;;5041941;28;20201;-50
2021/05/22 03:19:47;;;;;;;1.40;1.00;;;10.80;99.90;;;;;;5039240;28;20303;-50
2021/05/22 03:22:12;;;;;;;4.23;1.10;;;11.00;99.90;;;;;;5043222;28;20182;-50
2021/05/22 03:24:38;;;;;;;2.00;1.17;;;11.20;99.90;;;;;;5047666;28;20221;-50
2021/05/22 03:27:04;;;;;;;1.43;1.00;;;10.80;99.90;;;;;;5034915;28;20176;-50
2021/05/22 03:29:30;;;;;;;2.78;0.93;;;10.90;99.90;;;;;;5046081;28;20263;-51
2021/05/22 03:31:56;;;;;;;1.45;0.93;;;10.80;99.90;;;;;;5035265;28;20399;-50
2021/05/22 03:34:21;;;;;;;1.23;1.00;;;10.80;99.90;;;;;;5043792;28;20206;-51
2021/05/22 03:36:47;;;;;;;1.33;0.90;;;10.50;99.90;;;;;;5046260;28;20220;-51
2021/05/22 03:39:13;;;;;;;1.57;1.30;;;10.60;99.90;;;;;;5041383;28;20195;-51
2021/05/22 03:41:38;;;;;;;1.20;0.80;;;10.40;99.90;;;;;;5049910;28;20193;-50
2021/05/22 03:44:04;;;;;;;4.77;1.30;;;10.70;99.90;;;;;;5032245;28;20209;-50
2021/05/22 03:46:30;;;;;;;1.53;1.20;;;10.40;99.90;;;;;;5037543;28;20983;-50
2021/05/22 03:48:55;;;;;;;2.53;1.00;;;10.40;99.90;;;;;;5036615;28;20190;-50
2021/05/22 03:51:21;;;;;;;1.37;0.97;;;10.50;99.90;;;;;;5046663;28;20208;-50
2021/05/22 03:53:47;;;;;;;1.50;0.95;;;10.60;99.90;;;;;;5050643;28;20193;-50
2021/05/22 03:56:14;;;;;;;2.23;1.20;;;10.70;99.90;;;;;;5048543;28;20628;-51
2021/05/22 03:58:40;;;;;;;1.20;1.00;;;10.70;99.90;;;;;;5045265;28;20260;-50
2021/05/22 04:01:05;;;;;;;1.17;0.90;;;10.70;99.90;;;;;;5050131;28;20277;-50
2021/05/22 04:03:31;;;;;;;1.13;1.03;;;10.70;99.90;;;;;;5034519;28;20194;-50
2021/05/22 04:05:57;;;;;;;1.57;1.10;;;10.90;99.90;;;;;;5035292;28;20210;-49
2021/05/22 04:08:22;;;;;;;4.47;1.17;;;10.90;99.90;;;;;;5046742;28;20209;-51
2021/05/22 04:10:48;;;;;;;1.03;0.87;;;11.10;99.90;;;;;;5049983;28;20174;-50
2021/05/22 04:13:14;;;;;;;1.40;1.00;;;11.10;99.90;;;;;;5033690;28;20179;-51
2021/05/22 04:15:40;;;;;;;1.53;0.90;;;10.70;99.90;;;;;;5044357;28;20550;-51
2021/05/22 04:18:08;;;;;;;2.85;1.00;;;10.70;99.90;;;;;;5045589;28;20194;-50
2021/05/22 04:20:34;;;;;;;2.00;0.75;;;10.90;99.90;;;;;;5041715;28;20561;-51
2021/05/22 04:23:00;;;;;;;1.40;1.20;;;10.80;99.90;;;;;;5038060;28;20232;-50
2021/05/22 04:25:25;;;;;;;1.43;0.87;;;11.00;99.90;;;;;;5040056;28;20761;-50
2021/05/22 04:27:51;;;;;;;1.30;0.80;;;10.80;99.90;;;;;;5039261;28;20178;-50
2021/05/22 04:30:17;;;;;;;1.87;0.90;;;11.00;99.90;;;;;;5038136;28;20567;-50
2021/05/22 04:32:43;;;;;;;2.30;1.00;;;11.00;99.90;;;;;;5039491;28;20277;-50
2021/05/22 04:35:09;;;;;;;1.27;0.90;;;11.00;99.90;;;;;;5044300;28;20292;-51
2021/05/22 04:37:34;;;;;;;1.10;0.90;;;10.90;99.90;;;;;;5037344;28;20658;-50
2021/05/22 04:40:00;;;;;;;1.80;0.97;;;11.10;99.90;;;;;;5040947;28;20181;-50
2021/05/22 04:42:27;;;;;;;1.50;0.80;;;10.70;99.90;;;;;;5041891;28;20198;-50
2021/05/22 04:44:53;;;;;;;1.77;1.00;;;10.70;99.90;;;;;;5036490;28;20624;-50
2021/05/22 04:47:19;;;;;;;2.47;1.00;;;10.60;99.90;;;;;;5040609;28;20181;-49
2021/05/22 04:49:44;;;;;;;1.27;0.73;;;10.80;99.90;;;;;;5041497;28;20426;-50
2021/05/22 04:52:10;;;;;;;0.80;0.73;;;10.80;99.90;;;;;;5042886;28;20186;-49
2021/05/22 04:54:36;;;;;;;1.03;0.83;;;10.80;99.90;;;;;;5040382;28;20213;-50
2021/05/22 04:57:01;;;;;;;0.83;0.77;;;11.00;99.90;;;;;;5042917;28;20268;-50
2021/05/22 04:59:27;;;;;;;2.93;0.80;;;11.00;99.90;;;;;;5044520;28;20660;-50
2021/05/22 05:01:53;;;;;;;1.10;0.70;;;10.90;99.90;;;;;;5043959;28;20194;-50
2021/05/22 05:04:18;;;;;;;2.40;1.20;;;10.50;99.90;;;;;;5039479;28;20703;-50
2021/05/22 05:06:44;;;;;;;1.20;0.93;;;10.60;99.90;;;;;;5039979;28;20197;-50
2021/05/22 05:09:09;;;;;;;0.70;0.70;;;11.00;99.90;;;;;;5043765;28;20243;-50
2021/05/22 05:11:35;;;;;;;1.33;1.20;;;11.10;99.90;;;;;;5042586;28;20217;-49
2021/05/22 05:14:01;;;;;;;1.30;0.90;;;10.90;99.90;;;;;;5041351;28;20201;-50
2021/05/22 05:16:28;;;;;;;1.70;0.83;;;11.10;99.90;;;;;;5042189;28;20216;-50
2021/05/22 05:18:54;;;;;;;0.90;0.90;;;11.10;99.90;;;;;;5040211;28;20197;-50
2021/05/22 05:21:20;;;;;;;1.02;0.93;;;11.20;99.90;;;;;;5040536;28;20281;-49
2021/05/22 05:23:46;;;;;;;1.83;0.90;;;11.20;99.90;;;;;;5040502;28;20348;-50
2021/05/22 05:26:12;;;;;;;1.60;0.70;;;11.10;99.90;;;;;;5043687;28;20635;-51
2021/05/22 05:28:37;;;;;;;2.50;1.30;;;11.30;99.90;;;;;;5043147;28;20268;-50
2021/05/22 05:31:04;;;;;;;1.00;0.80;;;11.30;99.90;;;;;;5043838;28;20437;-50
2021/05/22 05:33:30;;;;;;;1.30;1.10;;;11.60;99.90;;;;;;5042638;28;20189;-52
2021/05/22 05:35:56;;;;;;;2.13;0.90;;;11.90;99.90;;;;;;5043126;28;20209;-50
2021/05/22 05:38:22;;;;;;;1.10;1.00;;;11.90;99.90;;;;;;5041407;28;20466;-51
2021/05/22 05:40:48;;;;;;;1.00;0.90;;;12.00;99.90;;;;;;5042686;28;20448;-51
2021/05/22 05:43:17;;;;;;;8.23;1.20;;;12.10;99.90;;;;;;5041926;28;20192;-50
2021/05/22 05:45:42;;;;;;;1.25;0.90;;;12.30;99.90;;;;;;5047201;28;20214;-50
2021/05/22 05:48:08;;;;;;;2.60;1.07;;;12.40;99.90;;;;;;5044145;28;20183;-50
2021/05/22 05:50:35;;;;;;;1.00;0.80;;;12.20;99.90;;;;;;5045182;28;20555;-50
2021/05/22 05:53:01;;;;;;;1.75;0.90;;;11.90;99.90;;;;;;5043063;28;20442;-51
2021/05/22 05:55:27;;;;;;;2.10;1.10;;;12.10;99.90;;;;;;5042993;28;20216;-51
2021/05/22 05:57:55;;;;;;;1.10;1.10;;;12.20;99.90;;;;;;5046528;28;20665;-50
2021/05/22 06:00:22;;;;;;;1.27;1.17;;;12.60;99.90;;;;;;5039053;28;20659;-51
2021/05/22 06:02:48;;;;;;;1.33;1.00;;;12.40;99.90;;;;;;5041640;28;20203;-50
2021/05/22 06:05:14;;;;;;;4.83;1.60;;;12.80;99.90;;;;;;5040464;28;20215;-51
2021/05/22 06:07:40;;;;;;;1.90;1.13;;;12.60;99.90;;;;;;5040767;28;20190;-52
2021/05/22 06:10:07;;;;;;;2.90;1.42;;;13.00;99.90;;;;;;5041900;28;20442;-52
2021/05/22 06:12:33;;;;;;;1.35;1.10;;;12.80;99.90;;;;;;5043734;28;20187;-51
2021/05/22 06:15:09;;;;;;;2.47;1.20;;;13.10;99.90;;;;;;5040360;28;20229;-51
2021/05/22 06:17:35;;;;;;;3.38;1.10;;;12.90;99.90;;;;;;5040706;28;20746;-52
2021/05/22 06:20:01;;;;;;;2.85;1.60;;;13.30;99.90;;;;;;5035587;28;20188;-52
2021/05/22 06:22:29;;;;;;;1.17;1.00;;;12.70;99.90;;;;;;5035582;28;20561;-52
2021/05/22 06:24:58;;;;;;;1.25;1.02;;;13.10;99.90;;;;;;5044912;28;20223;-52
2021/05/22 06:27:30;;;;;;;2.17;0.98;;;13.20;99.60;;;;;;5048101;28;20180;-52
2021/05/22 06:29:56;;;;;;;1.80;1.10;;;13.40;99.10;;;;;;5047081;28;20176;-52
2021/05/22 06:32:22;;;;;;;3.20;1.30;;;13.50;98.50;;;;;;5046699;28;20185;-52
2021/05/22 06:34:47;;;;;;;3.43;1.63;;;13.70;97.70;;;;;;5048113;28;20467;-51
2021/05/22 06:37:13;;;;;;;1.97;1.20;;;13.50;97.40;;;;;;5042995;28;20264;-52
2021/05/22 06:39:39;;;;;;;2.43;1.30;;;13.80;97.00;;;;;;5048747;28;20669;-52
2021/05/22 06:42:04;;;;;;;2.70;2.50;;;14.20;96.80;;;;;;5041266;28;20259;-51
2021/05/22 06:44:41;;;;;;;1.93;1.20;;;14.00;95.50;;;;;;5045553;28;21935;-52
2021/05/22 06:47:06;;;;;;;2.38;1.45;;;14.30;94.70;;;;;;5040166;28;20436;-52
2021/05/22 06:49:32;;;;;;;3.90;1.67;;;14.70;94.80;;;;;;5043719;28;20545;-52
2021/05/22 06:51:59;;;;;;;2.13;1.17;;;14.20;94.70;;;;;;5036232;28;20647;-52
2021/05/22 06:54:25;;;;;;;3.03;1.50;;;14.90;94.10;;;;;;5041419;28;20205;-52
2021/05/22 06:56:50;;;;;;;2.13;1.00;;;15.10;93.20;;;;;;5046482;28;20180;-52
2021/05/22 06:59:16;;;;;;;3.30;1.20;;;15.50;91.30;;;;;;5041928;28;20590;-52
2021/05/22 07:01:42;;;;;;;2.93;1.00;;;15.90;89.70;;;;;;5037709;28;20225;-52
2021/05/22 07:04:07;;;;;;;1.83;1.00;;;16.10;89.60;;;;;;5063213;28;20293;-52
2021/05/22 07:06:33;;;;;;;3.53;1.60;;;16.40;87.70;;;;;;5044902;28;20546;-53
2021/05/22 07:08:58;;;;;;;1.40;1.30;;;17.30;87.20;;;;;;5041990;28;20181;-53
2021/05/22 07:11:25;;;;;;;3.00;1.30;;;17.80;82.90;;;;;;5044145;28;21883;-51
2021/05/22 07:13:51;;;;;;;2.10;1.20;;;18.60;79.20;;;;;;5042818;28;20297;-51
2021/05/22 07:16:17;;;;;;;1.60;1.20;;;18.70;74.60;;;;;;5043743;28;20251;-51
2021/05/22 07:18:43;;;;;;;1.67;1.30;;;18.30;74.00;;;;;;5045302;28;20207;-51
2021/05/22 07:21:09;;;;;;;1.20;1.00;;;17.80;76.30;;;;;;5041367;28;20194;-51
2021/05/22 07:23:35;;;;;;;1.73;1.20;;;17.30;78.10;;;;;;5042842;28;20289;-51
2021/05/22 07:26:02;;;;;;;2.10;0.90;;;17.10;78.40;;;;;;5045699;28;20255;-51
2021/05/22 07:28:31;;;;;;;1.60;1.13;;;16.80;78.70;;;;;;5040581;28;20190;-53
2021/05/22 07:30:59;;;;;;;2.60;1.55;;;16.80;78.70;;;;;;5042877;28;20186;-52
2021/05/22 07:33:31;;;;;;;4.25;1.23;;;17.00;78.50;;;;;;5041653;28;20185;-52
2021/05/22 07:35:57;;;;;;;4.13;1.88;;;17.10;79.10;;;;;;5041855;28;20749;-52
2021/05/22 07:38:23;;;;;;;3.25;1.50;;;17.30;76.30;;;;;;5042337;28;20251;-52
2021/05/22 07:40:48;;;;;;;2.87;1.30;;;17.20;75.30;;;;;;5043839;28;20185;-52
2021/05/22 07:43:14;;;;;;;2.10;1.40;;;17.60;75.40;;;;;;5044274;28;20248;-52
2021/05/22 07:45:41;;;;;;;2.63;1.20;;;16.90;75.10;;;;;;5040914;28;20272;-53
2021/05/22 07:48:07;;;;;;;2.38;1.20;;;17.10;76.40;;;;;;5039025;28;20439;-53
2021/05/22 07:50:33;;;;;;;2.13;1.10;;;17.70;76.30;;;;;;5043631;28;20295;-53
2021/05/22 07:52:59;;;;;;;3.58;1.00;;;17.30;76.10;;;;;;5046477;28;20941;-51
2021/05/22 07:55:25;;;;;;;4.97;1.20;;;17.50;75.30;;;;;;5045051;28;20217;-54
2021/05/22 07:57:50;;;;;;;2.07;1.07;;;18.00;74.80;;;;;;5043393;28;20341;-54
2021/05/22 08:00:17;;;;;;;2.40;1.13;;;19.20;73.50;;;;;;5039419;28;20221;-52
2021/05/22 08:02:43;;;;;;;2.40;1.63;;;20.60;66.60;;;;;;5043789;28;20181;-51
2021/05/22 08:05:10;;;;;;;2.42;1.15;;;20.90;62.40;;;;;;5040582;28;20304;-51
2021/05/22 08:07:35;;;;;;;2.78;1.20;;;20.70;59.00;;;;;;5061340;28;20178;-52
2021/05/22 08:10:03;;;;;;;2.50;1.20;;;20.30;58.90;;;;;;5040363;28;20594;-51
2021/05/22 08:12:29;;;;;;;2.28;1.17;;;20.30;59.40;;;;;;5044650;28;20180;-51
2021/05/22 08:14:54;;;;;;;1.30;1.00;;;20.10;60.90;;;;;;5042729;28;20206;-51
2021/05/22 08:17:20;;;;;;;3.20;1.43;;;20.80;59.30;;;;;;5042982;28;20233;-52
2021/05/22 08:19:46;;;;;;;2.13;1.33;;;22.10;56.70;;;;;;5046902;28;20251;-53
2021/05/22 08:22:12;;;;;;;2.03;1.10;;;22.90;53.90;;;;;;5040982;28;20448;-52
2021/05/22 08:24:38;;;;;;;2.37;1.20;;;23.10;52.30;;;;;;5043060;28;21171;-50
2021/05/22 08:27:03;;;;;;;2.43;1.00;;;23.80;51.00;;;;;;5042142;28;20196;-54
2021/05/22 08:29:29;;;;;;;3.53;0.90;;;24.30;50.00;;;;;;5042802;28;20196;-50
2021/05/22 08:31:55;;;;;;;2.07;0.90;;;24.70;48.20;;;;;;5043688;28;20189;-51
2021/05/22 08:34:21;;;;;;;1.33;1.03;;;25.20;46.80;;;;;;5040994;28;20453;-51
2021/05/22 08:36:46;;;;;;;1.10;1.00;;;25.60;45.50;;;;;;5042040;28;20194;-50
2021/05/22 08:39:12;;;;;;;3.73;1.10;;;26.70;44.10;;;;;;5040287;28;20190;-51
2021/05/22 08:41:38;;;;;;;1.50;0.90;;;26.00;44.60;;;;;;5043025;28;20273;-50
2021/05/22 08:44:04;;;;;;;2.83;0.90;;;26.20;42.70;;;;;;5041412;28;20209;-50
2021/05/22 08:46:31;;;;;;;3.13;1.20;;;25.90;42.70;;;;;;5042395;28;20479;-50
2021/05/22 08:48:57;;;;;;;1.40;0.90;;;27.00;41.80;;;;;;5044307;28;20438;-51
2021/05/22 08:51:24;;;;;;;1.33;1.00;;;27.40;39.90;;;;;;5045158;28;20534;-50
2021/05/22 08:53:50;;;;;;;2.20;1.13;;;26.50;39.80;;;;;;5044002;28;20891;-51
2021/05/22 08:56:16;;;;;;;1.43;1.17;;;26.60;40.70;;;;;;5039880;28;20482;-52
2021/05/22 08:58:42;;;;;;;2.92;0.80;;;26.50;40.20;;;;;;5041490;28;20428;-51
2021/05/22 09:01:08;;;;;;;5.47;1.20;;;26.40;39.10;;;;;;5042168;28;20265;-49
2021/05/22 09:03:34;;;;;;;1.37;0.97;;;25.80;40.90;;;;;;5044019;28;20440;-49
2021/05/22 09:06:00;;;;;;;1.00;0.90;;;26.70;39.80;;;;;;5035698;28;20840;-52
2021/05/22 09:08:25;;;;;;;1.73;1.40;;;26.60;39.20;;;;;;5040362;28;20321;-49
2021/05/22 09:10:53;;;;;;;3.17;1.30;;;26.60;39.10;;;;;;5044115;28;20183;-48
2021/05/22 09:13:25;;;;;;;1.50;0.90;;;27.50;38.80;;;;;;5039562;28;20193;-50
2021/05/22 09:15:55;;;;;;;3.53;1.20;;;28.10;37.60;;;;;;5041498;28;20457;-51
2021/05/22 09:18:22;;;;;;;1.87;1.00;;;27.30;36.00;;;;;;5056069;28;20455;-51
2021/05/22 09:21:00;;;;;;;1.30;0.80;;;28.40;35.30;;;;;;5042077;28;20535;-52
2021/05/22 09:23:27;;;;;;;1.90;0.90;;;27.50;36.00;;;;;;5039331;28;20443;-51
2021/05/22 09:26:06;;;;;;;2.67;1.10;;;27.20;35.30;;;;;;5057501;28;20513;-52
2021/05/22 09:28:38;;;;;;;1.40;1.00;;;27.10;35.50;;;;;;5043918;28;21034;-51
2021/05/22 09:31:08;;;;;;;2.60;1.10;;;27.50;35.90;;;;;;5040382;28;20529;-49
2021/05/22 09:33:35;;;;;;;2.13;0.90;;;27.60;34.80;;;;;;5039381;28;20432;-52
2021/05/22 09:36:04;;;;;;;2.47;0.90;;;27.60;36.30;;;;;;5041106;28;20976;-50
2021/05/22 09:38:41;;;;;;;1.70;0.90;;;27.60;36.00;;;;;;5043630;28;20436;-50
2021/05/22 09:41:20;;;;;;;2.40;1.00;;;27.40;35.30;;;;;;5042037;28;20970;-50
2021/05/22 09:44:11;;;;;;;2.73;1.00;;;26.20;36.20;;;;;;5045528;28;20449;-50
2021/05/22 09:46:43;;;;;;;2.33;1.20;;;24.60;37.50;;;;;;5039906;28;20690;-50
2021/05/22 09:49:11;;;;;;;3.00;1.63;;;24.50;38.70;;;;;;5043033;28;20431;-50
2021/05/22 09:51:58;;;;;;;1.67;1.03;;;24.50;39.30;;;;;;5041476;28;20432;-50
2021/05/22 09:54:43;;;;;;;1.40;0.97;;;24.80;37.70;;;;;;5043251;28;22538;-51
2021/05/22 09:57:11;;;;;;;1.00;0.80;;;25.70;36.30;;;;;;5042960;28;20443;-52
2021/05/22 09:59:37;;;;;;;2.50;1.37;;;25.40;37.20;;;;;;5040113;28;20988;-51
2021/05/22 10:02:04;;;;;;;2.63;1.30;;;25.20;36.60;;;;;;5041247;28;20431;-51
2021/05/22 10:04:29;;;;;;;3.10;1.20;;;25.30;37.60;;;;;;5041323;28;20550;-51
2021/05/22 10:06:57;;;;;;;2.42;1.45;;;25.10;37.10;;;;;;5040572;28;20539;-49
2021/05/22 10:09:24;;;;;;;3.27;1.10;;;25.90;36.50;;;;;;5042063;28;20178;-49
2021/05/22 10:12:19;;;;;;;2.40;1.17;;;25.50;36.30;;;;;;5034969;28;20527;-49
2021/05/22 10:14:45;;;;;;;1.60;1.30;;;26.70;36.60;;;;;;5027898;28;21004;-52
2021/05/22 10:17:13;;;;;;;1.33;1.03;;;26.20;35.50;;;;;;5039074;28;20466;-51
2021/05/22 10:19:39;;;;;;;1.30;0.80;;;25.90;36.50;;;;;;5040923;28;20657;-50
2021/05/22 10:22:08;;;;;;;2.00;0.90;;;25.50;37.10;;;;;;5041875;28;20456;-51
2021/05/22 10:24:34;;;;;;;5.63;1.00;;;25.30;37.50;;;;;;5038151;28;20519;-51
2021/05/22 10:27:00;;;;;;;1.40;1.00;;;24.10;38.50;;;;;;5045296;28;20428;-50
2021/05/22 10:29:27;;;;;;;2.50;1.00;;;24.00;39.60;;;;;;5047536;28;20942;-51
2021/05/22 10:31:53;;;;;;;2.13;1.10;;;24.00;39.60;;;;;;5040143;28;20503;-50
2021/05/22 10:34:22;;;;;;;2.80;0.90;;;23.50;40.50;;;;;;5040985;28;20557;-50
2021/05/22 10:36:47;;;;;;;2.27;1.10;;;22.80;40.80;;;;;;5043034;28;20571;-51
2021/05/22 10:39:43;;;;;;;1.23;0.90;;;22.40;42.10;;;;;;5042454;28;20558;-50
2021/05/22 10:42:29;;;;;;;2.97;1.75;;;22.20;41.90;;;;;;5042645;28;20263;-51
2021/05/22 10:44:56;;;;;;;2.45;0.85;;;21.60;40.90;;;;;;5036363;28;20217;-52
2021/05/22 10:47:36;;;;;;;2.78;1.30;;;21.30;41.20;;;;;;5038462;28;20236;-52
2021/05/22 10:50:05;;;;;;;1.42;0.70;;;21.20;41.40;;;;;;5059362;28;20235;-52
2021/05/22 10:52:35;;;;;;;1.60;0.80;;;20.80;42.00;;;;;;5042849;28;20170;-52
2021/05/22 10:55:07;;;;;;;2.72;1.25;;;20.50;42.60;;;;;;5041512;28;20236;-52
2021/05/22 10:57:57;;;;;;;3.10;1.00;;;20.20;42.80;;;;;;5038372;28;20280;-52
2021/05/22 11:00:23;;;;;;;1.55;1.00;;;20.40;42.70;;;;;;5044938;28;20265;-53
2021/05/22 11:02:52;;;;;;;1.65;0.82;;;20.30;41.30;;;;;;5040497;28;20717;-53
2021/05/22 11:05:21;;;;;;;2.00;0.80;;;20.40;42.40;;;;;;5040517;28;20708;-52
2021/05/22 11:07:47;;;;;;;2.15;1.50;;;21.30;39.50;;;;;;5036418;28;20192;-53
2021/05/22 11:10:34;;;;;;;3.83;1.27;;;22.20;38.90;;;;;;5037281;28;20185;-52
2021/05/22 11:13:00;;;;;;;1.65;0.80;;;22.60;36.70;;;;;;5040402;28;20174;-53
2021/05/22 11:15:57;;;;;;;1.00;0.90;;;22.10;36.80;;;;;;5040499;28;20218;-52
2021/05/22 11:18:25;;;;;;;1.60;0.90;;;21.70;36.90;;;;;;5049894;28;20197;-52
2021/05/22 11:21:10;;;;;;;3.60;1.00;;;20.90;37.30;;;;;;5042456;28;20554;-52
2021/05/22 11:23:57;;;;;;;1.13;1.00;;;20.90;39.00;;;;;;5040180;28;20232;-52
2021/05/22 11:26:57;;;;;;;2.05;0.88;;;20.60;39.70;;;;;;5046734;28;21377;-52
2021/05/22 11:29:40;;;;;;;2.15;1.00;;;20.90;40.50;;;;;;5026475;28;20197;-53
2021/05/22 11:32:44;;;;;;;1.00;0.80;;;21.00;39.50;;;;;;5025047;28;20196;-53
2021/05/22 11:35:29;;;;;;;2.10;1.00;;;21.10;39.30;;;;;;5044395;28;20204;-53
2021/05/22 11:37:57;;;;;;;1.17;0.80;;;21.20;39.30;;;;;;5045207;28;20174;-53
2021/05/22 11:40:35;;;;;;;1.90;1.00;;;21.60;37.40;;;;;;5034896;28;20186;-52
2021/05/22 11:43:22;;;;;;;1.53;0.70;;;21.90;36.40;;;;;;5040403;28;20182;-53
2021/05/22 11:45:53;;;;;;;1.47;1.00;;;22.10;35.60;;;;;;5061145;28;20937;-52
2021/05/22 11:48:53;;;;;;;1.80;1.07;;;22.20;35.80;;;;;;5042646;28;20443;-52
2021/05/22 11:51:27;;;;;;;3.35;1.20;;;21.80;36.60;;;;;;5045511;28;20432;-53
2021/05/22 11:54:04;;;;;;;1.20;1.10;;;21.40;37.90;;;;;;5041410;28;20189;-53
2021/05/22 11:56:33;;;;;;;1.40;0.90;;;21.40;38.90;;;;;;5046405;28;20572;-53
2021/05/22 11:59:00;;;;;;;2.10;1.20;;;21.10;37.80;;;;;;5039506;28;20196;-52
2021/05/22 12:01:27;;;;;;;1.00;0.80;;;20.90;37.70;;;;;;5039558;28;20192;-52
2021/05/22 12:04:01;;;;;;;1.45;1.00;;;21.10;39.70;;;;;;5040897;28;20217;-53
2021/05/22 12:06:32;;;;;;;1.85;1.08;;;21.10;38.70;;;;;;5046362;28;20561;-52
2021/05/22 12:09:14;;;;;;;1.48;1.02;;;20.80;38.30;;;;;;5047255;28;20189;-52
2021/05/22 12:12:05;;;;;;;5.13;1.20;;;20.70;39.40;;;;;;5044699;28;20277;-52
2021/05/22 12:14:47;;;;;;;1.70;1.25;;;20.50;38.80;;;;;;5054396;28;20270;-52
2021/05/22 12:17:18;;;;;;;1.75;0.90;;;20.50;39.20;;;;;;5051157;28;20197;-52
2021/05/22 12:19:50;;;;;;;1.48;1.25;;;20.60;39.50;;;;;;5039851;28;20183;-53
2021/05/22 12:22:17;;;;;;;1.50;0.70;;;21.00;39.90;;;;;;5034632;28;20714;-53
2021/05/22 12:24:43;;;;;;;1.73;1.10;;;21.10;39.80;;;;;;5037383;28;20253;-53
2021/05/22 12:27:14;;;;;;;2.20;0.90;;;21.40;40.10;;;;;;5038647;28;20268;-53
2021/05/22 12:29:40;;;;;;;0.90;0.60;;;21.40;39.90;;;;;;5040361;28;20189;-53
2021/05/22 12:32:06;;;;;;;1.75;1.10;;;21.20;40.10;;;;;;5047187;28;20182;-53
2021/05/22 12:34:35;;;;;;;2.50;1.33;;;21.20;40.40;;;;;;5041125;28;20561;-53
2021/05/22 12:37:08;;;;;;;1.60;0.98;;;21.10;41.20;;;;;;5035770;28;20186;-53
2021/05/22 12:39:42;;;;;;;1.80;1.05;;;20.90;39.60;;;;;;5045340;28;20606;-53
2021/05/22 12:42:24;;;;;;;1.85;0.90;;;20.80;39.30;;;;;;5045667;28;20200;-53
2021/05/22 12:44:58;;;;;;;1.35;0.75;;;20.60;38.50;;;;;;5035987;28;20371;-53
2021/05/22 12:47:39;;;;;;;1.75;0.80;;;20.50;39.40;;;;;;5040848;28;20177;-53
2021/05/22 12:50:07;;;;;;;2.15;1.00;;;20.40;40.50;;;;;;5041253;28;20185;-53
2021/05/22 12:52:50;;;;;;;1.52;1.42;;;20.50;40.70;;;;;;5040357;28;20186;-53
2021/05/22 12:55:20;;;;;;;2.88;1.50;;;20.40;41.10;;;;;;5036853;28;20284;-53
2021/05/22 12:57:46;;;;;;;2.10;1.30;;;20.60;42.20;;;;;;5033167;28;20194;-51